createdAt,value
2022-07-29T03:44:56.807Z,100311.31
2022-07-29T03:48:09.453Z,100311.31
2022-07-29T03:51:11.894Z,100315.84
2022-07-29T03:54:15.235Z,100315.69
2022-07-29T03:57:21.242Z,100317.03
2022-07-29T04:00:26.864Z,100317.56
2022-07-29T04:03:30.609Z,100323.28
2022-07-29T04:06:41.296Z,100336.31
2022-07-29T04:09:44.625Z,100327.81
2022-07-29T04:12:47.082Z,100337.53
2022-07-29T04:15:49.871Z,100324.69
2022-07-29T04:18:52.653Z,100328.09
2022-07-29T04:21:55.439Z,100339.00
2022-07-29T04:25:03.237Z,100334.53
2022-07-29T04:28:07.925Z,100333.34
2022-07-29T04:31:11.575Z,100325.66
2022-07-29T04:34:14.612Z,100332.22
2022-07-29T04:37:17.218Z,100324.69
2022-07-29T04:40:20.763Z,100330.03
2022-07-29T04:43:23.371Z,100326.50
2022-07-29T04:46:26.253Z,100328.84
2022-07-29T04:49:28.881Z,100329.72
2022-07-29T04:52:31.727Z,100333.75
2022-07-29T04:55:34.288Z,100327.34
2022-07-29T04:58:37.757Z,100334.09
2022-07-29T05:01:40.306Z,100338.25
2022-07-29T05:04:46.037Z,100334.63
2022-07-29T05:07:48.360Z,100330.94
2022-07-29T05:10:51.062Z,100340.03
2022-07-29T05:13:53.543Z,100335.22
2022-07-29T05:16:58.069Z,100338.09
2022-07-29T05:20:00.819Z,100345.81
2022-07-29T05:23:04.019Z,100342.28
2022-07-29T05:26:06.350Z,100338.78
2022-07-29T05:29:42.587Z,100345.50
2022-07-29T05:32:32.767Z,100332.75
2022-07-29T05:35:35.982Z,100337.12
2022-07-29T05:38:38.425Z,100335.63
2022-07-29T05:41:41.270Z,100333.09
2022-07-29T05:44:44.573Z,100344.16
2022-07-29T05:47:47.569Z,100345.84
2022-07-29T05:50:50.042Z,100344.47
2022-07-29T05:53:52.665Z,100346.09
2022-07-29T05:56:55.068Z,100347.44
2022-07-29T05:59:57.741Z,100350.25
2022-07-29T06:03:00.056Z,100348.69
2022-07-29T06:06:02.698Z,100353.69
2022-07-29T06:09:12.094Z,100356.22
2022-07-29T06:12:15.888Z,100351.16
2022-07-29T06:15:18.398Z,100360.56
2022-07-29T06:18:24.601Z,100355.34
2022-07-29T06:21:27.253Z,100356.31
2022-07-29T06:24:30.252Z,100355.78
2022-07-29T06:27:32.566Z,100357.22
2022-07-29T06:30:35.202Z,100362.34
2022-07-29T06:33:37.695Z,100358.59
2022-07-29T06:36:41.019Z,100356.16
2022-07-29T06:39:43.641Z,100372.16
2022-07-29T06:42:46.322Z,100371.16
2022-07-29T06:45:48.963Z,100369.75
2022-07-29T06:48:53.097Z,100368.66
2022-07-29T06:51:56.093Z,100376.13
2022-07-29T06:54:59.100Z,100376.22
2022-07-29T06:58:01.539Z,100377.72
2022-07-29T07:01:06.112Z,100365.97
2022-07-29T07:04:09.829Z,100366.59
2022-07-29T07:07:12.504Z,100361.91
2022-07-29T07:10:15.815Z,100361.63
2022-07-29T07:13:18.603Z,100365.63
2022-07-29T07:16:20.966Z,100371.06
2022-07-29T07:19:24.029Z,100363.50
2022-07-29T07:22:26.506Z,100357.09
2022-07-29T07:25:29.277Z,100359.94
2022-07-29T07:28:31.788Z,100360.34
2022-07-29T07:31:34.672Z,100357.88
2022-07-29T07:34:38.750Z,100355.56
2022-07-29T07:37:41.902Z,100358.13
2022-07-29T07:40:44.286Z,100359.22
2022-07-29T07:43:46.799Z,100354.00
2022-07-29T07:46:49.035Z,100354.22
2022-07-29T07:49:51.722Z,100355.41
2022-07-29T07:52:58.433Z,100356.81
2022-07-29T07:56:10.494Z,100360.69
2022-07-29T07:59:14.099Z,100353.47
2022-07-29T08:02:16.983Z,100351.59
2022-07-29T08:05:19.801Z,100352.00
2022-07-29T08:08:22.339Z,100347.25
2022-07-29T08:11:25.006Z,100347.66
2022-07-29T08:14:27.338Z,100344.34
2022-07-29T08:17:30.055Z,100344.97
2022-07-29T08:20:39.744Z,100356.88
2022-07-29T08:23:57.733Z,100350.91
2022-07-29T08:27:01.218Z,100343.00
2022-07-29T08:30:04.522Z,100345.72
2022-07-29T08:33:06.910Z,100334.69
2022-07-29T08:36:10.711Z,100342.81
2022-07-29T08:39:13.103Z,100345.75
2022-07-29T08:42:17.610Z,100340.53
2022-07-29T08:45:21.293Z,100344.66
2022-07-29T08:48:24.834Z,100332.34
2022-07-29T08:51:28.439Z,100338.37
2022-07-29T08:54:31.742Z,100338.78
2022-07-29T08:57:35.442Z,100325.22
2022-07-29T09:00:44.628Z,100329.59
2022-07-29T09:03:47.677Z,100330.09
2022-07-29T09:06:53.066Z,100322.00
2022-07-29T09:09:55.951Z,100326.19
2022-07-29T09:12:58.984Z,100320.47
2022-07-29T09:16:05.657Z,100321.25
2022-07-29T09:19:21.443Z,100313.41
2022-07-29T09:22:31.317Z,100309.91
2022-07-29T09:25:37.878Z,100314.44
2022-07-29T09:28:43.222Z,100316.94
2022-07-29T09:31:50.178Z,100312.66
2022-07-29T09:35:22.542Z,100313.94
2022-07-29T09:38:25.166Z,100311.94
2022-07-29T09:41:31.055Z,100293.53
2022-07-29T09:44:43.878Z,100292.91
2022-07-29T09:47:50.039Z,100300.03
2022-07-29T09:50:53.474Z,100292.09
2022-07-29T09:53:55.896Z,100292.22
2022-07-29T09:56:58.571Z,100283.25
2022-07-29T10:00:06.306Z,100293.06
2022-07-29T10:03:16.637Z,100282.81
2022-07-29T10:06:19.496Z,100279.72
2022-07-29T10:09:22.268Z,100283.88
2022-07-29T10:12:25.522Z,100278.19
2022-07-29T10:15:30.619Z,100272.47
2022-07-29T10:18:34.592Z,100274.53
2022-07-29T10:21:38.759Z,100274.78
2022-07-29T10:24:41.443Z,100271.81
2022-07-29T10:27:48.394Z,100269.50
2022-07-29T10:30:53.350Z,100259.34
2022-07-29T10:34:18.115Z,100257.66
2022-07-29T10:38:06.966Z,100256.94
2022-07-29T10:41:32.126Z,100252.31
2022-07-29T10:44:43.838Z,100243.87
2022-07-29T10:47:46.413Z,100246.97
2022-07-29T10:51:05.412Z,100248.13
2022-07-29T10:54:09.619Z,100250.75
2022-07-29T10:57:53.972Z,100246.84
2022-07-29T11:00:54.298Z,100237.84
2022-07-29T11:03:57.501Z,100236.03
2022-07-29T11:06:59.795Z,100232.44
2022-07-29T11:10:12.661Z,100234.28
2022-07-29T11:13:56.069Z,100227.97
2022-07-29T11:17:05.938Z,100215.19
2022-07-29T11:20:37.797Z,100218.69
2022-07-29T11:23:43.279Z,100214.81
2022-07-29T11:27:14.743Z,100209.81
2022-07-29T11:30:21.710Z,100212.19
2022-07-29T11:33:54.253Z,100204.66
2022-07-29T11:37:10.284Z,100200.19
2022-07-29T11:40:14.509Z,100193.16
2022-07-29T11:44:13.533Z,100190.53
2022-07-29T11:47:22.359Z,100178.19
2022-07-29T11:50:35.382Z,100178.16
2022-07-29T11:53:40.329Z,100183.22
2022-07-29T11:56:46.696Z,100179.19
2022-07-29T11:59:49.602Z,100179.81
2022-07-29T12:02:53.714Z,100179.19
2022-07-29T12:05:56.524Z,100177.16
2022-07-29T12:08:59.947Z,100175.41
2022-07-29T12:12:05.425Z,100181.53
2022-07-29T12:15:20.920Z,100170.09
2022-07-29T12:18:25.321Z,100165.09
2022-07-29T12:21:28.722Z,100167.47
2022-07-29T12:24:44.890Z,100160.13
2022-07-29T12:27:48.378Z,100154.00
2022-07-29T12:30:52.084Z,100158.78
2022-07-29T12:33:55.093Z,100139.59
2022-07-29T12:36:59.670Z,100147.50
2022-07-29T12:40:06.270Z,100140.78
2022-07-29T12:43:18.017Z,100139.84
2022-07-29T12:46:20.523Z,100132.53
2022-07-29T12:49:24.023Z,100122.34
2022-07-29T12:52:34.927Z,100119.84
2022-07-29T12:55:49.661Z,100113.12
2022-07-29T12:58:52.665Z,100106.19
2022-07-29T13:01:55.743Z,100112.84
2022-07-29T13:05:00.047Z,100113.12
2022-07-29T13:08:22.201Z,100112.47
2022-07-29T13:11:44.058Z,100100.56
2022-07-29T13:14:51.391Z,100105.00
2022-07-29T13:17:53.790Z,100094.37
2022-07-29T13:20:57.533Z,100088.41
2022-07-29T13:23:59.903Z,100083.47
2022-07-29T13:27:05.687Z,100075.59
2022-07-29T13:30:10.850Z,100086.25
2022-07-29T13:33:15.059Z,100082.84
2022-07-29T13:36:17.695Z,100083.16
